RORY

Yoron Airport

Airport
ICAO code
RORY
IATA Code
RNJ
Summary
ICAO Region
APAC
ICAO Territory
Location

Yoron, Kagoshima Prefecture

Serving
Yoronjima
Elevation
47 ft
Coordinates
27° 2' 35" N , 128° 24' 0" E
KCC
Metar
Observation
RORY 031900Z AUTO 35006KT 9999 FEW031 OVC047 17/10 Q1018
Station
Yoron Island
Date/Time
2023-02-03 19:00:00
Wind direction
350°
Wind speed
06 kts
Lowest cloud amount
few clouds
Temperature
17°C
Dew point
10°C
Humidity
63%
QNH
1018 hPa
Weather condition
n/a

Yoron Airport is an airport located on Yoronjima in Kagoshima Prefecture Japan.

Climatology

Humid Sub-tropical climate (Köppen climate classification Cfa)

Runways

Designator Length Width Surface Rops
14/32 1323 30 ASP Yes/Yes

Airport map

Aerial View

SKYbrary Partners:

Safety knowledge contributed by: